EXS13N EGPH-LGRP
Flight info
| Callsign | EXS13N |
|---|---|
| Flight time | N/A |
| Altitude | 35000 |
| Route | TLA Y96 HAVEN DCT OTBUN DCT ERKIT N110 DOLAS DCT NAVPI DCT TIVUN DCT ESAMA DCT OSBIT DCT TENLO DCT LAMSI DCT NIDLO/N0438F370 DCT VABEK UL603 OLOTA DCT RUGAS DCT GIKAS DCT MES UN139 LURUS UL995 CODIC |
| Aircraft | B738/M-SDE2E3FGHIRWXY/LB1 |
Departure
| Time | N/A |
|---|---|
| Airport | Edinburgh Airport (EGPH) |
Arrival
| Time | 2026-05-04 20:08 |
|---|---|
| Airport | Rhodes International Airport "Diagoras" (LGRP) |
| Time | Latitude | Longitude | Altitude | Speed | Heading |
|---|---|---|---|---|---|
| 2026-05-04 19:36 | 37.76445 | 26.12660 | 37083 ft | 471 kts | 161° |
| 2026-05-04 19:36 | 37.73367 | 26.14043 | 37092 ft | 468 kts | 161° |
| 2026-05-04 19:37 | 37.67243 | 26.16804 | 36918 ft | 469 kts | 160° |
| 2026-05-04 19:37 | 37.64172 | 26.18189 | 36598 ft | 465 kts | 160° |
| 2026-05-04 19:37 | 37.61145 | 26.19554 | 36215 ft | 460 kts | 160° |
| 2026-05-04 19:37 | 37.58143 | 26.20906 | 35838 ft | 456 kts | 160° |
| 2026-05-04 19:38 | 37.55165 | 26.22245 | 35448 ft | 452 kts | 160° |
| 2026-05-04 19:38 | 37.52211 | 26.23573 | 35068 ft | 449 kts | 159° |
| 2026-05-04 19:38 | 37.49278 | 26.24889 | 34684 ft | 446 kts | 159° |
| 2026-05-04 19:38 | 37.46367 | 26.26195 | 34306 ft | 443 kts | 159° |
| 2026-05-04 19:39 | 37.43475 | 26.27491 | 33896 ft | 440 kts | 159° |
| 2026-05-04 19:39 | 37.40602 | 26.28778 | 33468 ft | 437 kts | 159° |
| 2026-05-04 19:39 | 37.37749 | 26.30055 | 33073 ft | 433 kts | 159° |
| 2026-05-04 19:39 | 37.34924 | 26.31318 | 32693 ft | 429 kts | 159° |
| 2026-05-04 19:40 | 37.32123 | 26.32569 | 32316 ft | 426 kts | 159° |
| 2026-05-04 19:40 | 37.29345 | 26.33810 | 31958 ft | 422 kts | 158° |
| 2026-05-04 19:40 | 37.26585 | 26.35042 | 31592 ft | 419 kts | 158° |
| 2026-05-04 19:40 | 37.23848 | 26.36263 | 31232 ft | 416 kts | 158° |
| 2026-05-04 19:41 | 37.21129 | 26.37473 | 30879 ft | 413 kts | 158° |
| 2026-05-04 19:41 | 37.18430 | 26.38672 | 30535 ft | 410 kts | 158° |
| 2026-05-04 19:41 | 37.15745 | 26.39860 | 30192 ft | 408 kts | 158° |
| 2026-05-04 19:41 | 37.13078 | 26.41039 | 29792 ft | 405 kts | 158° |
| 2026-05-04 19:42 | 37.10432 | 26.42208 | 29417 ft | 401 kts | 158° |
| 2026-05-04 19:42 | 37.07811 | 26.43365 | 29040 ft | 398 kts | 158° |
| 2026-05-04 19:42 | 37.05214 | 26.44512 | 28680 ft | 394 kts | 158° |
| 2026-05-04 19:42 | 37.02635 | 26.45650 | 28309 ft | 391 kts | 158° |
| 2026-05-04 19:43 | 37.00075 | 26.46780 | 27963 ft | 388 kts | 158° |
| 2026-05-04 19:43 | 36.97538 | 26.47898 | 27606 ft | 386 kts | 158° |
| 2026-05-04 19:43 | 36.95015 | 26.49009 | 27251 ft | 383 kts | 159° |
| 2026-05-04 19:43 | 36.92507 | 26.50113 | 26911 ft | 381 kts | 159° |
| 2026-05-04 19:44 | 36.90164 | 26.51572 | 26545 ft | 373 kts | 139° |
| 2026-05-04 19:44 | 36.88348 | 26.53799 | 26259 ft | 362 kts | 122° |
| 2026-05-04 19:44 | 36.87144 | 26.56498 | 25914 ft | 352 kts | 108° |
| 2026-05-04 19:44 | 36.86210 | 26.59317 | 25600 ft | 351 kts | 107° |
| 2026-05-04 19:45 | 36.85291 | 26.62142 | 25265 ft | 352 kts | 107° |
| 2026-05-04 19:45 | 36.84342 | 26.64985 | 24950 ft | 359 kts | 108° |
| 2026-05-04 19:45 | 36.83351 | 26.67896 | 24605 ft | 369 kts | 108° |
| 2026-05-04 19:45 | 36.82336 | 26.70847 | 24253 ft | 370 kts | 108° |
| 2026-05-04 19:46 | 36.81665 | 26.72796 | 24031 ft | 368 kts | 108° |
| 2026-05-04 19:46 | 36.80656 | 26.75724 | 23693 ft | 367 kts | 108° |
| 2026-05-04 19:46 | 36.79650 | 26.78645 | 23296 ft | 365 kts | 108° |
| 2026-05-04 19:46 | 36.78658 | 26.81523 | 22918 ft | 363 kts | 108° |
| 2026-05-04 19:47 | 36.77664 | 26.84407 | 22562 ft | 361 kts | 108° |
| 2026-05-04 19:47 | 36.76675 | 26.87275 | 22216 ft | 359 kts | 108° |
| 2026-05-04 19:47 | 36.75692 | 26.90122 | 21889 ft | 356 kts | 108° |
| 2026-05-04 19:47 | 36.74715 | 26.92953 | 21546 ft | 354 kts | 108° |
| 2026-05-04 19:48 | 36.73742 | 26.95766 | 21211 ft | 352 kts | 108° |
| 2026-05-04 19:48 | 36.72775 | 26.98563 | 20879 ft | 351 kts | 108° |
| 2026-05-04 19:48 | 36.71809 | 27.01354 | 20553 ft | 350 kts | 108° |
| 2026-05-04 19:48 | 36.70847 | 27.04131 | 20224 ft | 348 kts | 108° |
| 2026-05-04 19:49 | 36.69888 | 27.06897 | 19894 ft | 347 kts | 108° |
| 2026-05-04 19:49 | 36.68931 | 27.09653 | 19568 ft | 346 kts | 108° |
| 2026-05-04 19:49 | 36.67975 | 27.12403 | 19244 ft | 345 kts | 108° |
| 2026-05-04 19:49 | 36.67020 | 27.15144 | 18901 ft | 346 kts | 108° |
| 2026-05-04 19:50 | 36.66060 | 27.17894 | 18570 ft | 346 kts | 108° |
| 2026-05-04 19:50 | 36.65101 | 27.20635 | 18214 ft | 346 kts | 108° |
| 2026-05-04 19:50 | 36.64142 | 27.23373 | 17866 ft | 344 kts | 108° |
| 2026-05-04 19:50 | 36.63256 | 27.25902 | 17549 ft | 343 kts | 108° |
| 2026-05-04 19:51 | 36.62304 | 27.28617 | 17215 ft | 341 kts | 108° |
| 2026-05-04 19:51 | 36.61370 | 27.31278 | 16908 ft | 339 kts | 109° |
| 2026-05-04 19:51 | 36.60415 | 27.33998 | 16589 ft | 337 kts | 109° |
| 2026-05-04 19:51 | 36.59479 | 27.36663 | 16271 ft | 336 kts | 109° |
| 2026-05-04 19:52 | 36.58544 | 27.39320 | 15958 ft | 334 kts | 109° |
| 2026-05-04 19:52 | 36.57616 | 27.41957 | 15644 ft | 332 kts | 109° |
| 2026-05-04 19:52 | 36.56691 | 27.44584 | 15328 ft | 331 kts | 109° |
| 2026-05-04 19:52 | 36.55769 | 27.47201 | 15019 ft | 330 kts | 109° |
| 2026-05-04 19:53 | 36.54850 | 27.49807 | 14706 ft | 328 kts | 110° |
| 2026-05-04 19:53 | 36.53934 | 27.52401 | 14402 ft | 327 kts | 110° |
| 2026-05-04 19:53 | 36.53021 | 27.54985 | 14087 ft | 326 kts | 110° |
| 2026-05-04 19:53 | 36.52726 | 27.55820 | 13990 ft | 325 kts | 110° |
| 2026-05-04 19:54 | 36.51967 | 27.57964 | 13717 ft | 325 kts | 110° |
| 2026-05-04 19:54 | 36.51047 | 27.60563 | 13371 ft | 323 kts | 110° |
| 2026-05-04 19:54 | 36.50156 | 27.63079 | 13049 ft | 322 kts | 110° |
| 2026-05-04 19:54 | 36.49257 | 27.65617 | 12732 ft | 320 kts | 110° |
| 2026-05-04 19:55 | 36.48361 | 27.68142 | 12417 ft | 318 kts | 110° |
| 2026-05-04 19:55 | 36.47470 | 27.70648 | 12104 ft | 317 kts | 110° |
| 2026-05-04 19:55 | 36.46604 | 27.73152 | 11789 ft | 314 kts | 105° |
| 2026-05-04 19:55 | 36.46077 | 27.75801 | 11418 ft | 311 kts | 95° |
| 2026-05-04 19:56 | 36.45756 | 27.78406 | 11104 ft | 309 kts | 94° |
| 2026-05-04 19:56 | 36.45457 | 27.81040 | 10799 ft | 308 kts | 94° |
| 2026-05-04 19:56 | 36.45139 | 27.83663 | 10486 ft | 307 kts | 95° |
| 2026-05-04 19:56 | 36.44799 | 27.86272 | 10204 ft | 306 kts | 95° |
| 2026-05-04 19:57 | 36.44449 | 27.88846 | 10054 ft | 298 kts | 95° |
| 2026-05-04 19:57 | 36.44101 | 27.91379 | 9759 ft | 297 kts | 95° |
| 2026-05-04 19:57 | 36.43757 | 27.93900 | 9465 ft | 295 kts | 95° |
| 2026-05-04 19:57 | 36.43417 | 27.96405 | 9185 ft | 293 kts | 95° |
| 2026-05-04 19:58 | 36.43079 | 27.98892 | 8900 ft | 291 kts | 94° |
| 2026-05-04 19:58 | 36.42744 | 28.01359 | 8624 ft | 289 kts | 94° |
| 2026-05-04 19:58 | 36.42411 | 28.03808 | 8350 ft | 287 kts | 94° |
| 2026-05-04 19:58 | 36.42080 | 28.06235 | 8093 ft | 284 kts | 94° |
| 2026-05-04 19:59 | 36.41751 | 28.08645 | 7815 ft | 282 kts | 94° |
| 2026-05-04 19:59 | 36.41425 | 28.11036 | 7552 ft | 280 kts | 94° |
| 2026-05-04 19:59 | 36.41101 | 28.13412 | 7290 ft | 279 kts | 94° |
| 2026-05-04 19:59 | 36.40776 | 28.15781 | 7024 ft | 278 kts | 94° |
| 2026-05-04 20:00 | 36.40451 | 28.18143 | 6752 ft | 277 kts | 94° |
| 2026-05-04 20:00 | 36.40127 | 28.20497 | 6471 ft | 276 kts | 93° |
| 2026-05-04 20:00 | 36.39804 | 28.22837 | 6183 ft | 275 kts | 93° |
| 2026-05-04 20:00 | 36.39484 | 28.25165 | 5884 ft | 274 kts | 94° |
| 2026-05-04 20:01 | 36.39162 | 28.27491 | 5593 ft | 273 kts | 94° |
| 2026-05-04 20:01 | 36.38842 | 28.29804 | 5300 ft | 271 kts | 94° |
| 2026-05-04 20:01 | 36.38523 | 28.32101 | 5022 ft | 269 kts | 93° |
| 2026-05-04 20:01 | 36.38434 | 28.34378 | 4718 ft | 259 kts | 75° |
| 2026-05-04 20:02 | 36.39028 | 28.36370 | 4470 ft | 244 kts | 51° |
| 2026-05-04 20:02 | 36.40180 | 28.37834 | 4226 ft | 233 kts | 29° |
| 2026-05-04 20:02 | 36.41608 | 28.38648 | 4130 ft | 221 kts | 13° |
| 2026-05-04 20:02 | 36.43090 | 28.38877 | 4019 ft | 210 kts | 357° |
| 2026-05-04 20:03 | 36.44494 | 28.38545 | 3931 ft | 202 kts | 341° |
| 2026-05-04 20:03 | 36.45696 | 28.37726 | 3885 ft | 196 kts | 324° |
| 2026-05-04 20:03 | 36.46637 | 28.36499 | 3798 ft | 198 kts | 310° |
| 2026-05-04 20:03 | 36.47255 | 28.34962 | 3629 ft | 209 kts | 290° |
| 2026-05-04 20:04 | 36.47235 | 28.33102 | 3463 ft | 222 kts | 266° |
| 2026-05-04 20:04 | 36.46930 | 28.31191 | 3243 ft | 228 kts | 263° |
| 2026-05-04 20:04 | 36.46547 | 28.29287 | 2957 ft | 226 kts | 258° |
| 2026-05-04 20:04 | 36.46056 | 28.27460 | 2714 ft | 220 kts | 256° |
| 2026-05-04 20:05 | 36.45538 | 28.25701 | 2479 ft | 213 kts | 255° |
| 2026-05-04 20:05 | 36.45043 | 28.24031 | 2341 ft | 195 kts | 256° |
| 2026-05-04 20:05 | 36.44594 | 28.22502 | 2091 ft | 187 kts | 256° |
| 2026-05-04 20:05 | 36.44161 | 28.21021 | 1842 ft | 178 kts | 256° |
| 2026-05-04 20:06 | 36.43749 | 28.19614 | 1611 ft | 168 kts | 256° |
| 2026-05-04 20:06 | 36.43366 | 28.18308 | 1397 ft | 155 kts | 257° |
| 2026-05-04 20:06 | 36.43012 | 28.17097 | 1220 ft | 144 kts | 258° |
| 2026-05-04 20:06 | 36.42674 | 28.15933 | 996 ft | 143 kts | 257° |
| 2026-05-04 20:07 | 36.42339 | 28.14786 | 834 ft | 139 kts | 255° |
| 2026-05-04 20:07 | 36.42012 | 28.13652 | 631 ft | 140 kts | 257° |
| 2026-05-04 20:07 | 36.41679 | 28.12526 | 431 ft | 139 kts | 256° |
| 2026-05-04 20:07 | 36.41353 | 28.11416 | 237 ft | 134 kts | 257° |
| 2026-05-04 20:08 | 36.41036 | 28.10334 | 68 ft | 133 kts | 254° |
| 2026-05-04 20:08 | 36.40745 | 28.09322 | 30 ft | 109 kts | 250° |
| 2026-05-04 20:08 | 36.40538 | 28.08617 | 27 ft | 65 kts | 250° |
| 2026-05-04 20:08 | 36.40421 | 28.08219 | 27 ft | 43 kts | 250° |
| 2026-05-04 20:09 | 36.40282 | 28.07961 | 27 ft | 28 kts | 221° |
| 2026-05-04 20:09 | 36.40170 | 28.07873 | 27 ft | 14 kts | 154° |
| 2026-05-04 20:09 | 36.40169 | 28.07982 | 27 ft | 14 kts | 70° |
| 2026-05-04 20:09 | 36.40201 | 28.08089 | 27 ft | 13 kts | 69° |
| 2026-05-04 20:10 | 36.40232 | 28.08192 | 27 ft | 13 kts | 71° |
| 2026-05-04 20:10 | 36.40265 | 28.08308 | 27 ft | 17 kts | 71° |
| 2026-05-04 20:10 | 36.40308 | 28.08457 | 27 ft | 19 kts | 70° |
| 2026-05-04 20:10 | 36.40352 | 28.08606 | 27 ft | 18 kts | 70° |
| 2026-05-04 20:11 | 36.40395 | 28.08750 | 27 ft | 17 kts | 72° |
| 2026-05-04 20:11 | 36.40400 | 28.08860 | 27 ft | 8 kts | 97° |
| 2026-05-04 20:11 | 36.40367 | 28.08893 | 27 ft | 6 kts | 159° |
| 2026-05-04 20:11 | 36.40325 | 28.08912 | 27 ft | 6 kts | 160° |
| 2026-05-04 20:12 | 36.40318 | 28.08915 | 27 ft | 0 kts | 160° |
| 2026-05-04 20:12 | 36.40317 | 28.08916 | 27 ft | 0 kts | 160° |
| 2026-05-04 20:12 | 36.40306 | 28.08920 | 27 ft | 0 kts | 160° |